Terminal Aerodrome Forecast
Issued by NWS Twin Cities, MN

Home | Current Version | Previous Version | Graphics & Text | Print | Product List | Glossary On
Versions: 1 2 3 4 5 6 7 8 9 10 11 12 13 14 15
112
FTUS43 KMPX 261735
TAFEAU
TAF
KEAU 261735Z 2618/2718 18007KT P6SM SCT040 BKN060
     FM262200 20008KT P6SM SCT040
     FM270300 VRB03KT P6SM SKC
     FM271500 27006KT P6SM BKN150=

USA.gov is the U.S. government's official web portal to all federal, state and local government web resources and services.